Knox, Indiana
Current Conditions -  °F | °C
As of 1:15 PM on Saturday 20 Dec 2014 (Local Time) from KOXI Reporting Station
Overcast Overcast  
Wind Chill: 27°   Ceiling: 7000
Heat Index: 33°   Visibility: 7mi
Dew Point: 23°   Wind: 7mph
Humidity: 66%   Direction: 240°WSW
Pressure: 30.25"   Gusts: NA
Location:  41.3°N, 86.63°W
Report Text: KOXI 201915Z AUTO 24006KT 7SM SCT045 OVC070 01/M05 A3025 RMK AO1 T00071051
Loading
Personal Weather Stations






























Interactive Weather Map New forecast layout! Learn more

10-Day Weather Forecast

Advertisements
Track Severe Weather on mobile